Time;durP1;ratioP1;P1;durP2;ratioP2;P2;SDS_P1;SDS_P2;PMS_P1;PMS_P2;Temp;Humidity;BMP_temperature;BMP_pressure;BME280_temperature;BME280_humidity;BME280_pressure;Samples;Min_cycle;Max_cycle;Signal;HPM_P1;HPM_P2
2023/07/17 00:00:24;;;;;;;18.75;10.95;;;28.00;99.90;;;;;;5053734;28;20033;-78
2023/07/17 00:02:51;;;;;;;19.15;11.98;;;27.90;99.90;;;;;;5054534;28;20043;-80
2023/07/17 00:05:22;;;;;;;19.65;13.48;;;27.90;99.90;;;;;;5055625;28;20582;-77
2023/07/17 00:07:49;;;;;;;25.55;16.20;;;27.90;99.90;;;;;;5055348;28;20090;-80
2023/07/17 00:10:18;;;;;;;19.65;13.23;;;27.80;99.50;;;;;;5053498;28;20036;-83
2023/07/17 00:12:45;;;;;;;19.58;13.45;;;27.80;99.90;;;;;;5037155;28;20041;-83
2023/07/17 00:15:12;;;;;;;21.20;12.48;;;27.80;99.90;;;;;;5055208;28;20108;-82
2023/07/17 00:17:40;;;;;;;19.02;12.27;;;27.80;99.90;;;;;;5038493;28;20664;-83
2023/07/17 00:20:11;;;;;;;19.70;11.60;;;27.80;99.90;;;;;;5054558;28;20041;-84
2023/07/17 00:22:42;;;;;;;20.33;12.55;;;27.80;99.90;;;;;;5043590;28;20164;-84
2023/07/17 00:25:28;;;;;;;20.80;11.60;;;27.70;99.90;;;;;;5047282;28;20391;-84
2023/07/17 00:27:55;;;;;;;21.38;13.05;;;27.70;99.90;;;;;;5053796;28;20128;-82
2023/07/17 00:30:22;;;;;;;18.48;12.30;;;27.60;99.90;;;;;;5055236;28;20043;-79
2023/07/17 00:32:49;;;;;;;15.93;11.25;;;27.60;99.90;;;;;;5035638;28;20144;-81
2023/07/17 00:35:17;;;;;;;17.90;11.70;;;27.60;99.90;;;;;;5039234;28;20043;-79
2023/07/17 00:37:45;;;;;;;18.25;11.90;;;27.70;99.90;;;;;;5069960;28;20037;-80
2023/07/17 00:40:16;;;;;;;13.73;10.77;;;27.70;99.90;;;;;;5050124;28;20049;-82
2023/07/17 00:42:44;;;;;;;18.08;11.63;;;27.70;99.90;;;;;;5040226;28;20037;-82
2023/07/17 00:45:11;;;;;;;16.50;11.18;;;27.70;99.90;;;;;;5041996;28;20079;-85
2023/07/17 00:47:39;;;;;;;20.70;12.18;;;27.60;99.90;;;;;;5044294;28;20034;-85
2023/07/17 00:50:07;;;;;;;15.02;10.98;;;27.70;99.90;;;;;;5052182;28;20424;-82
2023/07/17 00:52:34;;;;;;;19.60;11.20;;;27.70;99.90;;;;;;5054368;28;20083;-80
2023/07/17 00:55:01;;;;;;;16.75;10.50;;;27.60;99.90;;;;;;5036098;28;20361;-78
2023/07/17 00:57:29;;;;;;;18.20;10.93;;;27.50;99.90;;;;;;5056730;28;20388;-80
2023/07/17 00:59:57;;;;;;;17.92;11.10;;;27.50;99.90;;;;;;5062620;28;20040;-83
2023/07/17 01:02:25;;;;;;;16.85;11.57;;;27.50;99.90;;;;;;5060274;28;20041;-79
2023/07/17 01:04:53;;;;;;;17.20;11.45;;;27.40;99.90;;;;;;5062426;28;20033;-81
2023/07/17 01:07:20;;;;;;;19.17;11.50;;;27.40;99.90;;;;;;5058732;28;20064;-85
2023/07/17 01:09:48;;;;;;;19.40;11.18;;;27.30;99.90;;;;;;5041381;28;20045;-82
2023/07/17 01:12:15;;;;;;;15.27;10.60;;;27.20;99.90;;;;;;5054763;28;20381;-83
2023/07/17 01:14:42;;;;;;;14.45;10.63;;;27.30;99.90;;;;;;5055075;28;20038;-84
2023/07/17 01:17:10;;;;;;;18.67;10.80;;;27.20;99.90;;;;;;5055813;28;20041;-87
2023/07/17 01:19:38;;;;;;;18.10;10.18;;;27.20;99.90;;;;;;5047081;28;20037;-86
2023/07/17 01:22:33;;;;;;;16.08;11.50;;;27.20;99.90;;;;;;5048432;28;20033;-81
2023/07/17 01:25:03;;;;;;;14.32;10.18;;;27.30;99.90;;;;;;5047990;28;20056;-83
2023/07/17 01:27:30;;;;;;;;;;;27.30;99.90;;;;;;5048727;28;20067;-83
2023/07/17 01:29:57;;;;;;;18.15;10.93;;;27.20;99.90;;;;;;5042807;28;20633;-81
2023/07/17 01:32:25;;;;;;;17.88;11.00;;;27.10;99.90;;;;;;5054491;28;20473;-83
2023/07/17 01:34:52;;;;;;;18.48;10.60;;;27.10;99.90;;;;;;5054589;28;20048;-79
2023/07/17 01:37:19;;;;;;;16.50;10.77;;;26.90;99.90;;;;;;5042572;28;20033;-78
2023/07/17 01:39:46;;;;;;;15.10;10.38;;;26.90;99.90;;;;;;5035158;28;20396;-80
2023/07/17 01:42:14;;;;;;;18.27;11.98;;;26.90;99.90;;;;;;5057606;28;20048;-80
2023/07/17 01:44:43;;;;;;;17.02;11.10;;;26.80;99.90;;;;;;5056686;28;20033;-83
2023/07/17 01:47:11;;;;;;;16.98;10.57;;;26.80;99.90;;;;;;5048912;28;20124;-84
2023/07/17 01:49:40;;;;;;;15.82;11.18;;;26.80;99.90;;;;;;5057579;28;20112;-85
2023/07/17 01:52:10;;;;;;;15.68;10.75;;;26.90;99.90;;;;;;5049846;28;20037;-81
2023/07/17 01:54:41;;;;;;;16.50;10.88;;;26.90;99.90;;;;;;5054285;28;20037;-79
2023/07/17 01:57:08;;;;;;;27.17;11.95;;;26.70;99.90;;;;;;5055823;28;20033;-79
2023/07/17 01:59:35;;;;;;;16.30;11.55;;;26.80;99.90;;;;;;5055891;28;20108;-79
2023/07/17 02:02:03;;;;;;;20.25;11.32;;;26.70;99.90;;;;;;5056546;28;20026;-81
2023/07/17 02:04:30;;;;;;;19.33;11.57;;;26.80;99.90;;;;;;5047509;28;20037;-78
2023/07/17 02:06:58;;;;;;;16.15;11.68;;;26.70;99.90;;;;;;5038522;28;20047;-80
2023/07/17 02:09:25;;;;;;;21.48;11.20;;;26.90;99.90;;;;;;5056520;28;20112;-81
2023/07/17 02:11:52;;;;;;;15.27;10.80;;;26.90;99.90;;;;;;5054363;28;20091;-79
2023/07/17 02:14:20;;;;;;;14.85;10.93;;;26.90;99.90;;;;;;5043228;28;20049;-87
2023/07/17 02:16:47;;;;;;;17.48;10.85;;;26.80;99.90;;;;;;5038787;28;20337;-84
2023/07/17 02:19:16;;;;;;;21.83;10.75;;;26.90;99.90;;;;;;5044390;28;20061;-81
2023/07/17 02:21:44;;;;;;;17.40;11.45;;;26.90;99.90;;;;;;5054697;28;20037;-85
2023/07/17 02:24:13;;;;;;;17.58;10.48;;;27.00;99.90;;;;;;5056672;28;20037;-87
2023/07/17 02:26:41;;;;;;;14.30;10.57;;;26.90;99.90;;;;;;5051393;28;20037;-87
2023/07/17 02:29:08;;;;;;;21.38;12.32;;;26.70;99.90;;;;;;5050687;28;20047;-83
2023/07/17 02:31:36;;;;;;;16.52;11.45;;;26.60;99.90;;;;;;5041561;28;20419;-79
2023/07/17 02:34:03;;;;;;;16.00;10.98;;;26.60;99.90;;;;;;5035576;28;20041;-79
2023/07/17 02:36:30;;;;;;;17.60;12.27;;;26.60;99.90;;;;;;5036402;28;20068;-84
2023/07/17 02:38:58;;;;;;;18.42;11.35;;;26.60;99.90;;;;;;5053828;28;20041;-81
2023/07/17 02:41:25;;;;;;;16.25;11.27;;;26.60;99.90;;;;;;5047398;28;20036;-81
2023/07/17 02:43:52;;;;;;;15.45;11.35;;;26.60;99.90;;;;;;5053442;28;20044;-82
2023/07/17 02:46:20;;;;;;;19.65;11.68;;;26.50;99.90;;;;;;5053118;28;20049;-79
2023/07/17 02:48:47;;;;;;;17.58;11.25;;;26.60;99.90;;;;;;5053662;28;20037;-83
2023/07/17 02:51:15;;;;;;;20.88;12.07;;;26.70;99.90;;;;;;5053077;28;20377;-83
2023/07/17 02:53:43;;;;;;;18.50;11.75;;;26.80;99.90;;;;;;5052429;28;20041;-80
2023/07/17 02:56:10;;;;;;;19.35;12.20;;;26.70;99.90;;;;;;5037082;28;20069;-80
2023/07/17 02:58:42;;;;;;;19.33;11.40;;;26.70;99.90;;;;;;5053844;28;20451;-82
2023/07/17 03:01:10;;;;;;;18.23;11.40;;;26.70;99.90;;;;;;5054112;28;20075;-86
2023/07/17 03:03:37;;;;;;;19.88;11.38;;;26.60;99.90;;;;;;5054557;28;20037;-80
2023/07/17 03:06:05;;;;;;;17.98;12.18;;;26.60;99.90;;;;;;5054099;28;20049;-78
2023/07/17 03:08:33;;;;;;;18.48;12.15;;;26.60;99.90;;;;;;5055722;28;20074;-77
2023/07/17 03:11:04;;;;;;;17.63;10.88;;;26.50;99.90;;;;;;5055421;28;20393;-79
2023/07/17 03:13:31;;;;;;;21.60;11.73;;;26.40;99.90;;;;;;5049953;28;20029;-78
2023/07/17 03:15:59;;;;;;;18.75;11.57;;;26.50;99.90;;;;;;5048546;28;20136;-84
2023/07/17 03:18:27;;;;;;;16.10;10.43;;;26.40;99.90;;;;;;5041716;28;20041;-88
2023/07/17 03:20:57;;;;;;;17.23;11.38;;;26.30;99.90;;;;;;5034472;28;20063;-84
2023/07/17 03:23:24;;;;;;;17.50;11.05;;;26.40;99.90;;;;;;5057724;28;20029;-89
2023/07/17 03:25:55;;;;;;;15.95;12.05;;;26.50;99.90;;;;;;5057807;28;20032;-85
2023/07/17 03:28:22;;;;;;;15.75;12.13;;;26.30;99.90;;;;;;5053338;28;20447;-80
2023/07/17 03:30:51;;;;;;;14.10;10.73;;;26.40;99.90;;;;;;5039581;28;20094;-81
2023/07/17 03:33:18;;;;;;;17.05;11.00;;;26.40;99.90;;;;;;5055895;28;20044;-81
2023/07/17 03:35:46;;;;;;;20.27;12.77;;;26.40;99.90;;;;;;5055876;28;20037;-80
2023/07/17 03:38:13;;;;;;;19.63;10.90;;;26.40;99.90;;;;;;5053288;28;20420;-84
2023/07/17 03:40:40;;;;;;;15.20;10.98;;;26.40;99.90;;;;;;5037390;28;20128;-87
2023/07/17 03:43:07;;;;;;;19.95;12.13;;;26.50;99.90;;;;;;5055025;28;20096;-83
2023/07/17 03:45:37;;;;;;;15.50;11.38;;;26.50;99.90;;;;;;5055453;28;20057;-90
2023/07/17 03:48:04;;;;;;;19.40;11.55;;;26.50;99.90;;;;;;5048264;28;20447;-80
2023/07/17 03:50:36;;;;;;;19.00;11.70;;;26.50;99.90;;;;;;5037267;28;20036;-82
2023/07/17 03:53:03;;;;;;;22.90;10.98;;;26.50;99.90;;;;;;5037064;28;20076;-82
2023/07/17 03:55:30;;;;;;;15.73;12.30;;;26.50;99.90;;;;;;5052633;28;20071;-82
2023/07/17 03:57:57;;;;;;;15.68;11.40;;;26.50;99.90;;;;;;5027739;28;20040;-84
2023/07/17 04:00:25;;;;;;;17.23;11.48;;;26.50;99.90;;;;;;5054448;28;20065;-84
2023/07/17 04:02:52;;;;;;;15.50;11.43;;;26.50;99.90;;;;;;5053026;28;20102;-86
2023/07/17 04:05:19;;;;;;;17.88;11.32;;;26.60;99.90;;;;;;5050456;28;20040;-79
2023/07/17 04:07:47;;;;;;;20.05;11.30;;;26.70;99.90;;;;;;5049847;28;20119;-80
2023/07/17 04:10:14;;;;;;;17.50;11.60;;;26.70;99.90;;;;;;5054445;28;20041;-82
2023/07/17 04:12:41;;;;;;;16.35;11.40;;;26.60;99.90;;;;;;5041866;28;20033;-80
2023/07/17 04:15:10;;;;;;;17.45;11.73;;;26.60;99.90;;;;;;5037447;28;20060;-85
2023/07/17 04:17:37;;;;;;;16.75;12.48;;;26.60;99.90;;;;;;5053804;28;20037;-83
2023/07/17 04:20:09;;;;;;;19.98;11.70;;;26.50;99.90;;;;;;5056075;28;20086;-86
2023/07/17 04:22:38;;;;;;;22.73;12.13;;;26.60;99.90;;;;;;5060118;28;20033;-86
2023/07/17 04:25:08;;;;;;;17.15;11.02;;;26.70;99.90;;;;;;5042812;28;20037;-82
2023/07/17 04:27:36;;;;;;;22.33;12.60;;;26.70;99.90;;;;;;5033807;28;20071;-83
2023/07/17 04:30:04;;;;;;;18.48;11.93;;;26.70;99.90;;;;;;5051597;28;20358;-80
2023/07/17 04:32:32;;;;;;;21.95;12.43;;;26.70;99.90;;;;;;5053276;28;20084;-78
2023/07/17 04:34:59;;;;;;;17.35;12.45;;;26.80;99.90;;;;;;5048832;28;20056;-87
2023/07/17 04:37:26;;;;;;;16.15;11.30;;;26.90;99.90;;;;;;5039114;28;20473;-81
2023/07/17 04:39:53;;;;;;;19.85;11.57;;;26.90;99.90;;;;;;5055932;28;20442;-84
2023/07/17 04:42:24;;;;;;;20.73;13.32;;;26.90;99.90;;;;;;5057879;28;20092;-86
2023/07/17 04:44:51;;;;;;;17.15;11.38;;;27.00;99.90;;;;;;5038482;28;20052;-85
2023/07/17 04:47:19;;;;;;;19.52;12.88;;;27.00;99.90;;;;;;5062387;28;20033;-85
2023/07/17 04:49:47;;;;;;;18.58;13.45;;;26.90;99.90;;;;;;5054576;28;20048;-82
2023/07/17 04:52:14;;;;;;;22.27;13.95;;;26.80;99.90;;;;;;5053315;28;20060;-83
2023/07/17 04:54:41;;;;;;;18.92;12.65;;;27.00;99.90;;;;;;5036104;28;20126;-85
2023/07/17 04:57:09;;;;;;;24.88;14.43;;;27.00;99.90;;;;;;5050865;28;20060;-87
2023/07/17 04:59:36;;;;;;;82.70;58.20;;;27.00;99.90;;;;;;5039284;28;20048;-87
2023/07/17 05:02:03;;;;;;;53.05;38.80;;;27.00;99.90;;;;;;5052383;28;20064;-84
2023/07/17 05:04:31;;;;;;;126.10;91.07;;;27.10;99.90;;;;;;5050585;28;20029;-79
2023/07/17 05:06:58;;;;;;;33.15;23.92;;;27.10;99.90;;;;;;5041966;28;20033;-83
2023/07/17 05:09:25;;;;;;;46.88;30.00;;;27.20;99.90;;;;;;5048407;28;20029;-82
2023/07/17 05:11:52;;;;;;;43.83;29.20;;;27.10;99.90;;;;;;5046826;28;20049;-85
2023/07/17 05:14:21;;;;;;;65.70;45.13;;;27.30;99.90;;;;;;5036747;28;20079;-76
2023/07/17 05:16:48;;;;;;;54.50;37.40;;;27.40;99.90;;;;;;5052882;28;20065;-76
2023/07/17 05:19:15;;;;;;;25.00;16.20;;;27.20;99.90;;;;;;5039468;28;20045;-77
2023/07/17 05:21:43;;;;;;;24.45;16.45;;;27.20;99.90;;;;;;5030757;28;20069;-83
2023/07/17 05:24:10;;;;;;;25.08;16.23;;;27.20;99.90;;;;;;5045203;28;20144;-77
2023/07/17 05:26:38;;;;;;;24.95;14.70;;;27.30;99.90;;;;;;5052061;28;20036;-82
2023/07/17 05:29:05;;;;;;;21.35;14.25;;;27.40;99.90;;;;;;5054834;28;20471;-78
2023/07/17 05:31:32;;;;;;;21.98;13.82;;;27.40;99.90;;;;;;5052002;28;20477;-76
2023/07/17 05:33:59;;;;;;;17.92;13.30;;;27.30;99.90;;;;;;5065962;28;20041;-76
2023/07/17 05:36:27;;;;;;;19.52;14.95;;;27.40;99.90;;;;;;5050505;28;20079;-78
2023/07/17 05:38:54;;;;;;;22.23;13.55;;;27.50;99.90;;;;;;5039610;28;20060;-77
2023/07/17 05:41:21;;;;;;;21.95;13.55;;;27.60;99.90;;;;;;5042238;28;20041;-79
2023/07/17 05:43:49;;;;;;;28.58;13.75;;;27.60;99.90;;;;;;5053696;28;20033;-75
2023/07/17 05:46:16;;;;;;;74.30;52.95;;;27.50;99.90;;;;;;5035065;28;20041;-77
2023/07/17 05:48:43;;;;;;;52.78;38.00;;;27.50;99.90;;;;;;5035847;28;20128;-78
2023/07/17 05:51:10;;;;;;;22.33;15.95;;;27.60;99.90;;;;;;5052224;28;20478;-78
2023/07/17 05:53:39;;;;;;;23.10;15.57;;;27.60;99.90;;;;;;5053229;28;20492;-79
2023/07/17 05:56:06;;;;;;;23.38;14.73;;;27.60;99.90;;;;;;5054889;28;20480;-80
2023/07/17 05:58:34;;;;;;;22.85;15.10;;;27.40;99.90;;;;;;5054456;28;20495;-77
2023/07/17 06:01:01;;;;;;;24.35;13.55;;;27.50;99.90;;;;;;5054738;28;20106;-77
2023/07/17 06:03:28;;;;;;;24.02;14.25;;;27.60;99.90;;;;;;5037104;28;20029;-77
2023/07/17 06:05:56;;;;;;;20.38;14.40;;;27.70;99.90;;;;;;5054409;28;20045;-77
2023/07/17 06:08:23;;;;;;;26.55;14.18;;;27.80;99.90;;;;;;5055006;28;20102;-82
2023/07/17 06:10:50;;;;;;;24.38;13.90;;;27.90;99.90;;;;;;5058983;28;20033;-82
2023/07/17 06:13:20;;;;;;;24.90;16.05;;;28.00;99.90;;;;;;5046587;28;20037;-83
2023/07/17 06:15:47;;;;;;;25.70;15.57;;;28.00;99.90;;;;;;5053807;28;20420;-86
2023/07/17 06:18:15;;;;;;;22.55;14.10;;;28.10;99.90;;;;;;5057798;28;20053;-77
2023/07/17 06:20:42;;;;;;;24.48;13.85;;;28.10;99.90;;;;;;5057065;28;20399;-76
2023/07/17 06:23:10;;;;;;;24.90;14.93;;;28.00;99.90;;;;;;5055927;28;20111;-84
2023/07/17 06:25:38;;;;;;;26.73;15.40;;;28.10;99.90;;;;;;5054468;28;20045;-80
2023/07/17 06:28:08;;;;;;;25.90;14.33;;;28.20;99.90;;;;;;5054895;28;20036;-81
2023/07/17 06:30:35;;;;;;;29.05;15.50;;;28.20;99.90;;;;;;5055119;28;20773;-77
2023/07/17 06:33:06;;;;;;;20.45;14.00;;;28.30;99.90;;;;;;5044772;28;20064;-85
2023/07/17 06:35:34;;;;;;;22.83;14.70;;;28.30;99.90;;;;;;5053270;28;20037;-86
2023/07/17 06:38:01;;;;;;;23.17;13.93;;;28.20;99.90;;;;;;5057965;28;20036;-83
2023/07/17 06:40:28;;;;;;;25.90;15.10;;;28.20;99.90;;;;;;5061703;28;20037;-84
2023/07/17 06:42:56;;;;;;;25.85;14.63;;;28.30;99.90;;;;;;5062459;28;20037;-85
2023/07/17 06:45:23;;;;;;;22.15;13.48;;;28.30;99.90;;;;;;5058505;28;20059;-82
2023/07/17 06:47:51;;;;;;;19.77;13.88;;;28.40;99.90;;;;;;5048125;28;20349;-82
2023/07/17 06:50:18;;;;;;;21.77;14.07;;;28.40;99.90;;;;;;5054814;28;20048;-76
2023/07/17 06:52:46;;;;;;;25.73;14.68;;;28.40;99.90;;;;;;5041154;28;20034;-80
2023/07/17 06:55:13;;;;;;;25.48;14.25;;;28.40;99.90;;;;;;5037987;28;20044;-78
2023/07/17 06:57:40;;;;;;;21.05;14.52;;;28.40;99.90;;;;;;5058010;28;20043;-77
2023/07/17 07:00:09;;;;;;;24.35;14.38;;;28.50;99.90;;;;;;5051522;28;20428;-83
2023/07/17 07:02:37;;;;;;;22.25;14.55;;;28.50;99.90;;;;;;5058240;28;20033;-87
2023/07/17 07:05:06;;;;;;;23.15;14.10;;;28.50;99.90;;;;;;5054533;28;20103;-81
2023/07/17 07:07:34;;;;;;;20.98;14.35;;;28.50;99.90;;;;;;5026557;28;20044;-87
2023/07/17 07:10:03;;;;;;;25.40;14.93;;;28.60;99.90;;;;;;5049381;28;20060;-87
2023/07/17 07:12:31;;;;;;;22.40;14.80;;;28.50;99.90;;;;;;5052325;28;20045;-86
2023/07/17 07:14:59;;;;;;;22.98;14.68;;;28.60;99.90;;;;;;5046694;28;20069;-86
2023/07/17 07:17:26;;;;;;;27.58;15.23;;;28.70;99.90;;;;;;5065044;28;20040;-79
2023/07/17 07:20:15;;;;;;;22.80;15.43;;;28.70;99.90;;;;;;5064931;28;20047;-78
2023/07/17 07:23:17;;;;;;;21.67;13.65;;;28.70;99.90;;;;;;5070476;28;20063;-82
2023/07/17 07:26:02;;;;;;;25.25;16.00;;;28.80;99.90;;;;;;5070698;28;20059;-84
2023/07/17 07:28:58;;;;;;;24.17;14.52;;;28.80;99.90;;;;;;5060507;28;20044;-85
2023/07/17 07:31:25;;;;;;;31.05;15.07;;;28.90;99.90;;;;;;5059363;28;20581;-82
2023/07/17 07:33:52;;;;;;;21.33;14.77;;;28.90;99.90;;;;;;5058716;28;20040;-87
2023/07/17 07:36:22;;;;;;;26.83;16.08;;;28.90;99.90;;;;;;5060203;28;20040;-85
2023/07/17 07:38:49;;;;;;;21.75;14.23;;;28.90;99.90;;;;;;5058134;28;20060;-85
2023/07/17 07:41:17;;;;;;;25.15;16.25;;;28.90;99.90;;;;;;5059421;28;20117;-84
2023/07/17 07:43:45;;;;;;;26.90;16.70;;;29.00;99.90;;;;;;5057795;28;20114;-84
2023/07/17 07:46:18;;;;;;;23.77;15.73;;;29.10;99.90;;;;;;5060913;28;20037;-82
2023/07/17 07:48:46;;;;;;;21.67;14.77;;;29.00;99.90;;;;;;5059271;28;20029;-81
2023/07/17 07:51:13;;;;;;;19.73;13.93;;;29.00;99.90;;;;;;5041815;28;20043;-83
2023/07/17 07:53:44;;;;;;;20.63;14.55;;;29.00;99.90;;;;;;5054101;28;20447;-80
2023/07/17 07:56:11;;;;;;;18.05;13.38;;;29.00;99.90;;;;;;5058093;28;20033;-85
2023/07/17 07:58:38;;;;;;;19.10;12.98;;;29.10;99.90;;;;;;5055614;28;20132;-77
2023/07/17 08:01:07;;;;;;;19.77;13.15;;;29.10;99.90;;;;;;5042333;28;20127;-80
2023/07/17 08:03:34;;;;;;;24.15;13.30;;;29.20;99.90;;;;;;5063309;28;20067;-84
2023/07/17 08:06:04;;;;;;;24.83;14.00;;;29.20;99.90;;;;;;5062252;28;20033;-77
2023/07/17 08:08:31;;;;;;;20.60;11.95;;;29.30;99.90;;;;;;5059441;28;20070;-77
2023/07/17 08:10:59;;;;;;;24.27;13.23;;;29.30;99.90;;;;;;5042111;28;20120;-78
2023/07/17 08:13:26;;;;;;;17.58;11.10;;;29.50;99.90;;;;;;5054376;28;20105;-74
2023/07/17 08:15:54;;;;;;;18.85;11.85;;;29.60;99.90;;;;;;5010543;28;20077;-80
2023/07/17 08:18:22;;;;;;;16.95;11.07;;;29.50;99.90;;;;;;5054361;28;20041;-78
2023/07/17 08:20:49;;;;;;;19.17;11.88;;;29.60;99.90;;;;;;5057356;28;20447;-82
2023/07/17 08:23:27;;;;;;;19.20;11.15;;;29.70;99.90;;;;;;5054390;28;20511;-82
2023/07/17 08:25:55;;;;;;;14.90;10.85;;;29.70;99.90;;;;;;5050644;28;20037;-77
2023/07/17 08:28:22;;;;;;;20.17;12.48;;;29.70;99.90;;;;;;5055578;28;20428;-82
2023/07/17 08:30:52;;;;;;;19.35;13.40;;;29.70;99.90;;;;;;5061522;28;20388;-76
2023/07/17 08:33:23;;;;;;;17.33;11.63;;;29.70;99.90;;;;;;5051025;28;20041;-74
2023/07/17 08:35:51;;;;;;;;;;;29.70;99.90;;;;;;5048832;28;20072;-85
2023/07/17 08:38:19;;;;;;;17.73;11.75;;;29.70;99.90;;;;;;5037832;28;20402;-79
2023/07/17 08:40:53;;;;;;;18.08;12.02;;;29.90;99.90;;;;;;5049778;28;20042;-80
2023/07/17 08:43:23;;;;;;;22.98;12.55;;;29.80;99.90;;;;;;5053032;28;20734;-76
2023/07/17 08:45:52;;;;;;;22.23;11.75;;;29.80;99.90;;;;;;5056108;28;20140;-84
2023/07/17 08:48:22;;;;;;;19.67;12.23;;;30.00;99.90;;;;;;5053913;28;20033;-81
2023/07/17 08:50:52;;;;;;;16.67;11.80;;;30.00;99.90;;;;;;5059685;28;20064;-80
2023/07/17 08:53:24;;;;;;;18.50;12.27;;;30.10;99.90;;;;;;5057411;28;20033;-82
2023/07/17 08:55:54;;;;;;;24.67;15.02;;;30.10;99.90;;;;;;5053566;28;20423;-77
2023/07/17 08:58:27;;;;;;;17.50;11.60;;;30.10;99.90;;;;;;5051252;28;20086;-80
2023/07/17 09:00:57;;;;;;;15.07;11.25;;;30.20;99.90;;;;;;5055358;28;20052;-81
2023/07/17 09:03:25;;;;;;;16.92;11.80;;;30.30;99.90;;;;;;5034507;28;20068;-81
2023/07/17 09:05:53;;;;;;;19.67;11.60;;;30.50;99.90;;;;;;5040800;28;20477;-78
2023/07/17 09:08:21;;;;;;;19.17;11.48;;;30.50;99.90;;;;;;5057851;28;20079;-83
2023/07/17 09:11:08;;;;;;;18.95;10.82;;;30.30;99.90;;;;;;5046738;28;20038;-85
2023/07/17 09:13:41;;;;;;;19.42;12.93;;;30.40;99.90;;;;;;5056920;28;20025;-83
2023/07/17 09:16:19;;;;;;;24.33;15.05;;;30.20;99.90;;;;;;5065172;28;20017;-78
2023/07/17 09:18:51;;;;;;;19.60;12.77;;;30.30;99.90;;;;;;5051687;28;20033;-83
2023/07/17 09:21:20;;;;;;;17.45;11.68;;;30.40;99.90;;;;;;5048298;28;20040;-81
2023/07/17 09:23:52;;;;;;;16.60;11.57;;;30.70;99.90;;;;;;5048593;28;20045;-82
2023/07/17 09:26:22;;;;;;;22.67;12.60;;;31.00;99.90;;;;;;5051168;28;20049;-78
2023/07/17 09:28:51;;;;;;;16.55;11.25;;;31.20;99.90;;;;;;5049687;28;20037;-76
2023/07/17 09:31:27;;;;;;;19.48;13.32;;;31.30;99.90;;;;;;5055411;28;20037;-80
2023/07/17 09:34:09;;;;;;;17.20;11.38;;;31.20;99.90;;;;;;5048427;28;20064;-79
2023/07/17 09:36:39;;;;;;;16.90;12.50;;;31.20;99.90;;;;;;5050971;28;20088;-83
2023/07/17 09:39:07;;;;;;;16.90;12.07;;;30.90;99.90;;;;;;5036106;28;20053;-78
2023/07/17 09:41:34;;;;;;;20.30;11.95;;;31.00;99.90;;;;;;5052266;28;20037;-81
2023/07/17 09:44:03;;;;;;;16.70;12.15;;;30.90;99.90;;;;;;5056708;28;20105;-75
2023/07/17 09:46:36;;;;;;;17.23;11.40;;;30.90;99.90;;;;;;5065103;28;20243;-78
2023/07/17 09:49:06;;;;;;;19.83;11.73;;;30.80;99.90;;;;;;5054563;28;20135;-83
2023/07/17 09:51:34;;;;;;;19.27;12.35;;;31.20;99.90;;;;;;5058620;28;20037;-78
2023/07/17 09:54:05;;;;;;;15.10;11.15;;;30.90;99.90;;;;;;5054852;28;20029;-81
2023/07/17 09:56:33;;;;;;;19.92;12.48;;;31.30;99.90;;;;;;5049025;28;20069;-81
2023/07/17 09:59:17;;;;;;;19.85;14.07;;;31.50;99.70;;;;;;5050687;28;20030;-79
2023/07/17 10:01:55;;;;;;;18.08;11.10;;;31.70;99.50;;;;;;5028565;28;20144;-80
2023/07/17 10:04:36;;;;;;;21.13;13.35;;;31.90;99.60;;;;;;5042548;28;20072;-81
2023/07/17 10:07:10;;;;;;;17.83;11.35;;;32.00;99.20;;;;;;5064823;28;20076;-84
2023/07/17 10:09:40;;;;;;;20.33;11.25;;;32.30;98.00;;;;;;5049966;28;20096;-85
2023/07/17 10:12:10;;;;;;;16.83;10.75;;;32.30;97.80;;;;;;5059141;28;20033;-85
2023/07/17 10:14:38;;;;;;;20.95;12.40;;;32.40;97.60;;;;;;5031688;28;20059;-84
2023/07/17 10:17:42;;;;;;;22.70;11.50;;;32.40;97.20;;;;;;5048864;28;20037;-85
2023/07/17 10:20:12;;;;;;;17.17;11.40;;;32.50;97.30;;;;;;5015335;28;20496;-82
2023/07/17 10:22:45;;;;;;;19.55;12.60;;;32.70;97.20;;;;;;5053281;28;20090;-78
2023/07/17 10:25:17;;;;;;;17.52;10.93;;;32.80;96.70;;;;;;5038782;28;20104;-78
2023/07/17 10:28:03;;;;;;;20.08;10.50;;;32.80;95.70;;;;;;5053149;28;20037;-78
2023/07/17 10:30:36;;;;;;;18.42;10.50;;;32.90;95.20;;;;;;5041986;28;20029;-83
2023/07/17 10:33:14;;;;;;;23.48;11.18;;;32.90;94.80;;;;;;5042120;28;20037;-76
2023/07/17 10:35:52;;;;;;;18.63;10.85;;;32.80;95.00;;;;;;5029746;28;20481;-83
2023/07/17 10:38:24;;;;;;;15.75;10.10;;;32.90;94.70;;;;;;5048765;28;20136;-79
2023/07/17 10:41:05;;;;;;;13.40;9.27;;;33.00;94.10;;;;;;5046510;28;20041;-81
2023/07/17 10:43:36;;;;;;;15.35;9.32;;;33.10;93.90;;;;;;5051785;28;20045;-81
2023/07/17 10:46:08;;;;;;;17.35;10.27;;;33.30;94.00;;;;;;5052459;28;20041;-83
2023/07/17 10:48:37;;;;;;;17.52;11.18;;;33.30;93.90;;;;;;5058188;28;20056;-81
2023/07/17 10:51:04;;;;;;;18.15;11.20;;;33.30;93.30;;;;;;5055805;28;20080;-76
2023/07/17 10:53:32;;;;;;;19.67;10.38;;;33.40;92.80;;;;;;5056233;28;20469;-80
2023/07/17 10:56:00;;;;;;;16.13;10.85;;;33.50;92.40;;;;;;5056819;28;20477;-79
2023/07/17 10:58:30;;;;;;;17.55;11.32;;;33.50;92.50;;;;;;5052427;28;20037;-83
2023/07/17 11:01:15;;;;;;;17.58;10.88;;;33.50;92.90;;;;;;5063837;28;20033;-83
2023/07/17 11:04:13;;;;;;;16.38;11.65;;;33.50;93.20;;;;;;5056957;28;20389;-79
2023/07/17 11:07:12;;;;;;;16.02;10.43;;;33.50;92.30;;;;;;5045810;28;20047;-80
2023/07/17 11:10:12;;;;;;;20.20;11.05;;;33.60;92.40;;;;;;5068300;28;20079;-82
2023/07/17 11:16:24;;;;;;;15.30;10.43;;;33.70;91.20;;;;;;5040091;28;20044;-81
2023/07/17 11:19:16;;;;;;;15.43;10.65;;;33.60;91.20;;;;;;5048944;28;20123;-81
2023/07/17 11:21:49;;;;;;;16.95;10.73;;;33.60;91.30;;;;;;5064608;28;20045;-76
2023/07/17 11:24:32;;;;;;;15.23;10.02;;;33.70;91.20;;;;;;5051947;28;20029;-78
2023/07/17 11:26:59;;;;;;;18.98;11.40;;;33.80;90.60;;;;;;5057677;28;20053;-80
2023/07/17 11:29:28;;;;;;;15.23;10.63;;;33.90;90.40;;;;;;5050956;28;20041;-86
2023/07/17 11:32:12;;;;;;;15.48;10.13;;;34.00;90.50;;;;;;5069130;28;20040;-83
2023/07/17 11:34:45;;;;;;;12.63;9.52;;;34.20;89.70;;;;;;5049697;28;20105;-79
2023/07/17 11:37:49;;;;;;;12.75;9.15;;;34.30;88.40;;;;;;5053857;28;20052;-80
2023/07/17 11:41:10;;;;;;;17.13;9.75;;;34.50;88.30;;;;;;5051941;28;20032;-81
2023/07/17 11:43:56;;;;;;;14.68;10.02;;;34.50;85.60;;;;;;5091980;28;20036;-81
2023/07/17 11:47:36;;;;;;;17.63;10.15;;;34.30;87.50;;;;;;5060548;28;20049;-82
2023/07/17 11:50:58;;;;;;;12.77;9.68;;;34.20;88.70;;;;;;5078511;28;20412;-83
2023/07/17 11:54:08;;;;;;;12.60;10.13;;;33.80;86.80;;;;;;5094898;28;20043;-77
2023/07/17 11:57:10;;;;;;;18.02;9.88;;;33.90;88.80;;;;;;5051435;28;20048;-82
2023/07/17 12:00:00;;;;;;;12.90;9.43;;;34.00;88.00;;;;;;5030231;28;20036;-81
2023/07/17 12:02:27;;;;;;;19.05;9.43;;;34.00;86.30;;;;;;5092475;28;20032;-81
2023/07/17 12:05:02;;;;;;;13.98;9.30;;;34.30;86.30;;;;;;5081234;28;20328;-79
2023/07/17 12:07:30;;;;;;;16.90;10.32;;;34.50;87.40;;;;;;5064293;28;20387;-77
2023/07/17 12:09:59;;;;;;;;;;;34.50;86.00;;;;;;5073712;28;20032;-78
2023/07/17 12:12:27;;;;;;;18.48;10.57;;;34.60;85.80;;;;;;5079271;28;19916;-80
2023/07/17 12:14:54;;;;;;;16.10;10.32;;;34.70;83.80;;;;;;5080234;28;20043;-79
2023/07/17 12:17:22;;;;;;;14.65;9.20;;;34.60;84.80;;;;;;5085704;28;20040;-80
2023/07/17 12:19:50;;;;;;;14.07;9.23;;;34.70;82.30;;;;;;5077559;28;20048;-79
2023/07/17 12:22:17;;;;;;;15.55;9.77;;;34.70;81.90;;;;;;5076854;28;20036;-78
2023/07/17 12:24:48;;;;;;;16.23;9.73;;;34.70;83.20;;;;;;5085859;28;20107;-81
2023/07/17 12:27:17;;;;;;;15.77;8.90;;;34.90;82.50;;;;;;5096410;28;20089;-83
2023/07/17 12:30:00;;;;;;;11.40;8.93;;;35.00;82.90;;;;;;5052145;28;20084;-82
2023/07/17 12:32:28;;;;;;;17.23;10.13;;;35.00;80.30;;;;;;5080392;28;20064;-81
2023/07/17 12:34:58;;;;;;;15.63;9.32;;;35.00;82.00;;;;;;5063134;28;20047;-83
2023/07/17 12:37:29;;;;;;;15.23;8.95;;;34.80;80.20;;;;;;5078504;28;20041;-79
2023/07/17 12:39:58;;;;;;;14.23;9.50;;;34.70;82.10;;;;;;5070201;28;20139;-80
2023/07/17 12:42:28;;;;;;;15.35;9.45;;;34.80;80.00;;;;;;5033365;28;20491;-77
2023/07/17 12:44:55;;;;;;;16.05;9.38;;;34.60;79.10;;;;;;5088453;28;20738;-79
2023/07/17 12:47:23;;;;;;;16.88;8.77;;;34.60;79.00;;;;;;5073876;28;20041;-79
2023/07/17 12:49:51;;;;;;;11.95;8.18;;;35.00;79.50;;;;;;5065677;28;20466;-78